sensor_id;sensor_type;location;lat;lon;timestamp;pressure;altitude;pressure_sealevel;temperature;humidity
29163;BME280;20331;53.144;8.208;2023-07-29T00:05:51;100757.44;;;19.71;100.00
29163;BME280;20331;53.144;8.208;2023-07-29T00:16:13;100742.97;;;19.65;100.00
29163;BME280;20331;53.144;8.208;2023-07-29T00:26:36;100743.41;;;19.59;100.00
29163;BME280;20331;53.144;8.208;2023-07-29T00:36:58;100739.59;;;19.51;100.00
29163;BME280;20331;53.144;8.208;2023-07-29T00:47:20;100729.53;;;19.45;100.00
29163;BME280;20331;53.144;8.208;2023-07-29T00:57:43;100729.44;;;19.34;100.00
29163;BME280;20331;53.144;8.208;2023-07-29T01:08:12;100727.34;;;19.25;100.00
29163;BME280;20331;53.144;8.208;2023-07-29T01:18:39;100710.47;;;19.16;100.00
29163;BME280;20331;53.144;8.208;2023-07-29T01:29:01;100712.78;;;19.08;100.00
29163;BME280;20331;53.144;8.208;2023-07-29T01:39:22;100690.59;;;18.99;100.00
29163;BME280;20331;53.144;8.208;2023-07-29T01:49:45;100696.06;;;18.96;100.00
29163;BME280;20331;53.144;8.208;2023-07-29T02:00:06;100703.41;;;18.91;100.00
29163;BME280;20331;53.144;8.208;2023-07-29T02:10:28;100694.97;;;18.86;100.00
29163;BME280;20331;53.144;8.208;2023-07-29T02:20:52;100680.28;;;18.71;100.00
29163;BME280;20331;53.144;8.208;2023-07-29T02:41:35;100678.09;;;18.78;100.00
29163;BME280;20331;53.144;8.208;2023-07-29T02:51:57;100686.59;;;18.81;100.00
29163;BME280;20331;53.144;8.208;2023-07-29T03:02:18;100675.25;;;18.81;100.00
29163;BME280;20331;53.144;8.208;2023-07-29T03:12:39;100671.47;;;18.85;100.00
29163;BME280;20331;53.144;8.208;2023-07-29T03:23:01;100684.19;;;18.91;100.00
29163;BME280;20331;53.144;8.208;2023-07-29T03:33:24;100688.50;;;18.92;100.00
29163;BME280;20331;53.144;8.208;2023-07-29T03:43:46;100678.56;;;18.97;100.00
29163;BME280;20331;53.144;8.208;2023-07-29T03:54:07;100672.56;;;18.95;100.00
29163;BME280;20331;53.144;8.208;2023-07-29T04:04:29;100653.03;;;18.86;100.00
29163;BME280;20331;53.144;8.208;2023-07-29T04:14:50;100654.41;;;18.92;100.00
29163;BME280;20331;53.144;8.208;2023-07-29T04:25:12;100662.19;;;18.93;100.00
29163;BME280;20331;53.144;8.208;2023-07-29T04:35:34;100643.59;;;18.96;100.00
29163;BME280;20331;53.144;8.208;2023-07-29T04:45:55;100647.72;;;19.00;100.00
29163;BME280;20331;53.144;8.208;2023-07-29T04:56:17;100640.38;;;19.05;100.00
29163;BME280;20331;53.144;8.208;2023-07-29T05:06:39;100625.53;;;19.04;100.00
29163;BME280;20331;53.144;8.208;2023-07-29T05:17:00;100616.34;;;19.12;100.00
29163;BME280;20331;53.144;8.208;2023-07-29T05:27:22;100629.00;;;19.18;100.00
29163;BME280;20331;53.144;8.208;2023-07-29T05:37:43;100636.69;;;19.21;100.00
29163;BME280;20331;53.144;8.208;2023-07-29T05:48:05;100641.50;;;19.27;100.00
29163;BME280;20331;53.144;8.208;2023-07-29T05:58:26;100627.44;;;19.28;100.00
29163;BME280;20331;53.144;8.208;2023-07-29T06:08:48;100645.81;;;19.28;100.00
29163;BME280;20331;53.144;8.208;2023-07-29T06:19:09;100655.94;;;19.34;100.00
29163;BME280;20331;53.144;8.208;2023-07-29T06:29:31;100649.50;;;19.38;100.00
29163;BME280;20331;53.144;8.208;2023-07-29T06:39:52;100650.25;;;19.40;100.00
29163;BME280;20331;53.144;8.208;2023-07-29T06:50:14;100647.81;;;19.49;100.00
29163;BME280;20331;53.144;8.208;2023-07-29T07:00:35;100646.34;;;19.58;100.00
29163;BME280;20331;53.144;8.208;2023-07-29T07:10:56;100657.88;;;19.68;100.00
29163;BME280;20331;53.144;8.208;2023-07-29T07:21:18;100662.72;;;19.74;100.00
29163;BME280;20331;53.144;8.208;2023-07-29T07:31:39;100674.47;;;19.81;99.95
29163;BME280;20331;53.144;8.208;2023-07-29T07:42:01;100671.38;;;19.87;99.67
29163;BME280;20331;53.144;8.208;2023-07-29T07:52:22;100671.91;;;19.92;99.78
29163;BME280;20331;53.144;8.208;2023-07-29T08:02:44;100670.34;;;19.89;98.15
29163;BME280;20331;53.144;8.208;2023-07-29T08:13:06;100664.13;;;20.03;97.28
29163;BME280;20331;53.144;8.208;2023-07-29T08:23:27;100668.47;;;20.15;96.05
29163;BME280;20331;53.144;8.208;2023-07-29T08:33:49;100655.56;;;20.12;96.20
29163;BME280;20331;53.144;8.208;2023-07-29T08:44:23;100671.63;;;20.20;94.93
29163;BME280;20331;53.144;8.208;2023-07-29T08:54:47;100672.97;;;20.49;94.43
29163;BME280;20331;53.144;8.208;2023-07-29T09:05:09;100671.16;;;20.73;91.95
29163;BME280;20331;53.144;8.208;2023-07-29T09:15:31;100658.38;;;21.04;89.46
29163;BME280;20331;53.144;8.208;2023-07-29T09:26:04;100650.16;;;21.30;85.09
29163;BME280;20331;53.144;8.208;2023-07-29T09:36:26;100644.88;;;21.30;84.64
29163;BME280;20331;53.144;8.208;2023-07-29T09:46:47;100640.47;;;21.31;84.38
29163;BME280;20331;53.144;8.208;2023-07-29T09:57:09;100636.41;;;21.38;82.99
29163;BME280;20331;53.144;8.208;2023-07-29T10:07:31;100633.28;;;21.55;80.46
29163;BME280;20331;53.144;8.208;2023-07-29T10:17:53;100631.00;;;21.50;83.28
29163;BME280;20331;53.144;8.208;2023-07-29T10:28:15;100632.16;;;22.02;81.30
29163;BME280;20331;53.144;8.208;2023-07-29T10:38:37;100621.59;;;22.55;79.64
29163;BME280;20331;53.144;8.208;2023-07-29T10:48:58;100640.41;;;22.51;77.54
29163;BME280;20331;53.144;8.208;2023-07-29T10:59:31;100644.72;;;22.20;77.87
29163;BME280;20331;53.144;8.208;2023-07-29T11:20:18;100652.09;;;21.83;82.54
29163;BME280;20331;53.144;8.208;2023-07-29T11:30:40;100651.72;;;21.99;81.48
29163;BME280;20331;53.144;8.208;2023-07-29T11:41:01;100648.19;;;22.84;77.11
29163;BME280;20331;53.144;8.208;2023-07-29T11:51:27;100637.47;;;23.27;77.80
29163;BME280;20331;53.144;8.208;2023-07-29T12:01:49;100623.41;;;23.47;77.35
29163;BME280;20331;53.144;8.208;2023-07-29T12:12:11;100629.31;;;23.30;75.27
29163;BME280;20331;53.144;8.208;2023-07-29T12:22:32;100620.19;;;23.83;72.12
29163;BME280;20331;53.144;8.208;2023-07-29T12:32:54;100618.59;;;24.11;71.22
29163;BME280;20331;53.144;8.208;2023-07-29T12:43:15;100617.75;;;24.10;73.54
29163;BME280;20331;53.144;8.208;2023-07-29T12:53:37;100606.06;;;24.03;73.43
29163;BME280;20331;53.144;8.208;2023-07-29T13:03:58;100596.56;;;23.91;72.21
29163;BME280;20331;53.144;8.208;2023-07-29T13:14:20;100607.53;;;23.86;75.12
29163;BME280;20331;53.144;8.208;2023-07-29T13:24:41;100611.53;;;24.21;73.75
29163;BME280;20331;53.144;8.208;2023-07-29T13:35:03;100595.34;;;24.14;73.65
29163;BME280;20331;53.144;8.208;2023-07-29T13:45:25;100635.19;;;23.73;74.26
29163;BME280;20331;53.144;8.208;2023-07-29T13:55:46;100637.34;;;23.08;77.48
29163;BME280;20331;53.144;8.208;2023-07-29T14:06:08;100643.16;;;22.81;77.51
29163;BME280;20331;53.144;8.208;2023-07-29T14:16:29;100673.28;;;22.58;80.78
29163;BME280;20331;53.144;8.208;2023-07-29T14:26:51;100660.03;;;22.69;81.42
29163;BME280;20331;53.144;8.208;2023-07-29T14:37:12;100648.63;;;23.10;80.30
29163;BME280;20331;53.144;8.208;2023-07-29T14:47:33;100643.00;;;23.44;77.89
29163;BME280;20331;53.144;8.208;2023-07-29T14:57:56;100643.38;;;23.70;76.18
29163;BME280;20331;53.144;8.208;2023-07-29T15:08:17;100659.41;;;23.48;74.69
29163;BME280;20331;53.144;8.208;2023-07-29T15:18:39;100661.47;;;23.35;76.51
29163;BME280;20331;53.144;8.208;2023-07-29T15:29:00;100668.59;;;23.03;75.74
29163;BME280;20331;53.144;8.208;2023-07-29T15:39:23;100713.25;;;22.31;78.85
29163;BME280;20331;53.144;8.208;2023-07-29T15:49:45;100713.19;;;21.21;85.75
29163;BME280;20331;53.144;8.208;2023-07-29T16:00:06;100713.94;;;20.99;86.15
29163;BME280;20331;53.144;8.208;2023-07-29T16:10:28;100691.19;;;21.22;87.34
29163;BME280;20331;53.144;8.208;2023-07-29T16:20:50;100700.59;;;21.48;88.11
29163;BME280;20331;53.144;8.208;2023-07-29T16:31:11;100703.91;;;21.72;86.63
29163;BME280;20331;53.144;8.208;2023-07-29T16:41:33;100705.16;;;22.01;85.51
29163;BME280;20331;53.144;8.208;2023-07-29T16:52:14;100721.28;;;22.19;83.23
29163;BME280;20331;53.144;8.208;2023-07-29T17:02:36;100711.09;;;22.25;82.56
29163;BME280;20331;53.144;8.208;2023-07-29T17:12:57;100718.91;;;22.16;81.52
29163;BME280;20331;53.144;8.208;2023-07-29T17:23:19;100708.75;;;22.54;81.85
29163;BME280;20331;53.144;8.208;2023-07-29T17:33:40;100705.22;;;22.75;81.06
29163;BME280;20331;53.144;8.208;2023-07-29T17:44:03;100713.97;;;22.76;81.16
29163;BME280;20331;53.144;8.208;2023-07-29T17:54:25;100732.13;;;22.58;79.93
29163;BME280;20331;53.144;8.208;2023-07-29T18:04:46;100746.34;;;22.24;80.57
29163;BME280;20331;53.144;8.208;2023-07-29T18:15:08;100749.47;;;22.07;82.32
29163;BME280;20331;53.144;8.208;2023-07-29T18:25:31;100747.81;;;21.84;83.24
29163;BME280;20331;53.144;8.208;2023-07-29T18:35:53;100744.88;;;21.65;83.99
29163;BME280;20331;53.144;8.208;2023-07-29T18:46:14;100753.72;;;21.53;85.27
29163;BME280;20331;53.144;8.208;2023-07-29T18:56:36;100752.72;;;21.32;85.65
29163;BME280;20331;53.144;8.208;2023-07-29T19:06:58;100764.19;;;21.20;86.91
29163;BME280;20331;53.144;8.208;2023-07-29T19:17:19;100770.59;;;21.05;86.87
29163;BME280;20331;53.144;8.208;2023-07-29T19:27:41;100776.94;;;20.89;87.00
29163;BME280;20331;53.144;8.208;2023-07-29T19:38:02;100778.81;;;20.76;87.52
29163;BME280;20331;53.144;8.208;2023-07-29T19:48:24;100759.81;;;20.60;88.79
29163;BME280;20331;53.144;8.208;2023-07-29T19:58:45;100765.13;;;20.48;90.09
29163;BME280;20331;53.144;8.208;2023-07-29T20:09:07;100773.59;;;20.28;90.72
29163;BME280;20331;53.144;8.208;2023-07-29T20:19:28;100770.56;;;20.21;91.13
29163;BME280;20331;53.144;8.208;2023-07-29T20:29:50;100777.84;;;20.18;91.69
29163;BME280;20331;53.144;8.208;2023-07-29T20:40:11;100773.69;;;20.14;90.58
29163;BME280;20331;53.144;8.208;2023-07-29T20:50:33;100765.38;;;20.07;91.12
29163;BME280;20331;53.144;8.208;2023-07-29T21:00:55;100759.09;;;20.10;90.73
29163;BME280;20331;53.144;8.208;2023-07-29T21:11:16;100768.34;;;20.15;92.04
29163;BME280;20331;53.144;8.208;2023-07-29T21:21:38;100775.28;;;20.03;93.00
29163;BME280;20331;53.144;8.208;2023-07-29T21:32:00;100800.63;;;19.67;92.84
29163;BME280;20331;53.144;8.208;2023-07-29T21:42:21;100819.13;;;19.26;96.83
29163;BME280;20331;53.144;8.208;2023-07-29T21:52:44;100787.97;;;18.95;100.00
29163;BME280;20331;53.144;8.208;2023-07-29T22:03:05;100792.59;;;18.91;100.00
29163;BME280;20331;53.144;8.208;2023-07-29T22:13:27;100802.84;;;18.94;100.00
29163;BME280;20331;53.144;8.208;2023-07-29T22:23:49;100807.22;;;18.81;100.00
29163;BME280;20331;53.144;8.208;2023-07-29T22:34:20;100800.88;;;18.71;100.00
29163;BME280;20331;53.144;8.208;2023-07-29T22:44:41;100799.94;;;18.72;100.00
29163;BME280;20331;53.144;8.208;2023-07-29T22:55:03;100810.91;;;18.65;100.00
29163;BME280;20331;53.144;8.208;2023-07-29T23:05:25;100809.19;;;18.51;100.00
29163;BME280;20331;53.144;8.208;2023-07-29T23:15:47;100813.94;;;18.45;100.00
29163;BME280;20331;53.144;8.208;2023-07-29T23:26:08;100817.00;;;18.37;100.00
29163;BME280;20331;53.144;8.208;2023-07-29T23:36:30;100814.88;;;18.30;100.00
29163;BME280;20331;53.144;8.208;2023-07-29T23:46:52;100815.91;;;18.27;100.00
29163;BME280;20331;53.144;8.208;2023-07-29T23:57:13;100823.78;;;18.27;100.00
